Aérodrome :
LOGIN :

S'inscrire | Disclaimer

   EN    FR    IT 

 










Légende :    VFR   VFR Marginal   IFR   IFR Intensif   IFR Très Intensif
Visi : 
Plafond : 
>= 8 km
>= 3000ft
5 à 8 km
1000 à 3000 ft
1500m à 5 km
500 à 1000 ft
800 à 1500m
200 à 500 ft
< 800m
< 200 ft
Symboles :   Orages  Brouillard  Fortes neiges  Fortes précipitations  Vent > 20 kt
SIGMETs :   Divers  Orages  Givrage  Turbulence  Onde Orograph.  Cendres Volcan.






- Altitude de l'aérodrome : 1411 ft
- Code IATA : GVA


LSGG - Genève Cointrin

DERNIER METAR :
  • 041520Z VRB02KT 8000 RA SCT004 OVC025 16/15 Q1013 NOSIG

METARs EXPIRÉS :
  • 041450Z VRB01KT 7000 -RA SCT004 OVC025 15/14 Q1013 NOSIG
  • 041420Z VRB02KT 7000 +RA SCT003 OVC025 15/14 Q1013 NOSIG
  • 041350Z VRB02KT 7000 RA SCT003 SCT010 OVC020 15/15 Q1013 NOSIG
  • 041320Z VRB02KT 5000 RA FEW004 SCT010 OVC020 15/14 Q1013 NOSIG
  • 041250Z VRB02KT 3000 RA FEW002 SCT010 OVC020 15/15 Q1014 NOSIG

TAF TAF LSGG
Valide du 04 à 15h jusqu'au 05 à 21h UTC


041425Z 0415/0521 VRB02KT 7000 RA FEW006 SCT010 BKN020 TX17/0415Z TN13/0505Z TX22/0515Z
BECMG 0418/0420 NSW
TEMPO 0504/0508 4900 SHRA
BECMG 0509/0511 23012KT
ATIS : +41 22 417 40 81



MET'MAP, la Météo Aéronautique d'un coup d'oeil ! - Copyright ORBIFLY Décembre 2007 - Disclaimer

ORBIFLY MET'MAP TEAM :

Programmation & Développement : Alexandra Zaïnal
Sur une idée originale de : Baudouin d'Aumeries
Assistance à la programmation : Marc-Olivier Méhu
Soutien technique & logistique : Manuel Goepfert

Contact : metmap@orbifly.com




SOURCES & CREDITS :

   NOAA